sensor_id;sensor_type;location;lat;lon;timestamp;P1;durP1;ratioP1;P2;durP2;ratioP2
55989;SDS011;41875;55.806;38.082;2024-02-16T00:01:59;20.33;;;4.90;;
55989;SDS011;41875;55.806;38.082;2024-02-16T00:05:05;14.00;;;4.90;;
55989;SDS011;41875;55.806;38.082;2024-02-16T00:08:13;12.02;;;4.00;;
55989;SDS011;41875;55.806;38.082;2024-02-16T00:11:20;8.77;;;4.25;;
55989;SDS011;41875;55.806;38.082;2024-02-16T00:14:27;14.68;;;4.97;;
55989;SDS011;41875;55.806;38.082;2024-02-16T00:17:31;15.20;;;4.60;;
55989;SDS011;41875;55.806;38.082;2024-02-16T00:20:40;9.20;;;3.72;;
55989;SDS011;41875;55.806;38.082;2024-02-16T00:23:45;13.13;;;4.80;;
55989;SDS011;41875;55.806;38.082;2024-02-16T00:26:48;14.02;;;4.70;;
55989;SDS011;41875;55.806;38.082;2024-02-16T00:29:52;17.25;;;5.50;;
55989;SDS011;41875;55.806;38.082;2024-02-16T00:32:58;16.90;;;4.63;;
55989;SDS011;41875;55.806;38.082;2024-02-16T00:36:05;13.77;;;5.65;;
55989;SDS011;41875;55.806;38.082;2024-02-16T00:39:08;12.98;;;4.75;;
55989;SDS011;41875;55.806;38.082;2024-02-16T00:42:13;10.48;;;4.32;;
55989;SDS011;41875;55.806;38.082;2024-02-16T00:45:19;12.23;;;4.72;;
55989;SDS011;41875;55.806;38.082;2024-02-16T00:48:25;12.32;;;5.38;;
55989;SDS011;41875;55.806;38.082;2024-02-16T00:51:32;16.35;;;5.00;;
55989;SDS011;41875;55.806;38.082;2024-02-16T00:54:36;15.63;;;5.30;;
55989;SDS011;41875;55.806;38.082;2024-02-16T00:57:43;17.77;;;4.93;;
55989;SDS011;41875;55.806;38.082;2024-02-16T01:00:46;11.35;;;4.65;;
55989;SDS011;41875;55.806;38.082;2024-02-16T01:03:53;16.05;;;5.20;;
55989;SDS011;41875;55.806;38.082;2024-02-16T01:06:58;13.68;;;5.03;;
55989;SDS011;41875;55.806;38.082;2024-02-16T01:10:05;13.98;;;4.07;;
55989;SDS011;41875;55.806;38.082;2024-02-16T01:13:10;13.00;;;5.50;;
55989;SDS011;41875;55.806;38.082;2024-02-16T01:16:14;17.35;;;5.18;;
55989;SDS011;41875;55.806;38.082;2024-02-16T01:19:19;13.57;;;5.25;;
55989;SDS011;41875;55.806;38.082;2024-02-16T01:22:24;13.07;;;4.85;;
55989;SDS011;41875;55.806;38.082;2024-02-16T01:25:31;13.32;;;5.68;;
55989;SDS011;41875;55.806;38.082;2024-02-16T01:28:36;16.17;;;5.40;;
55989;SDS011;41875;55.806;38.082;2024-02-16T01:31:39;17.45;;;5.55;;
55989;SDS011;41875;55.806;38.082;2024-02-16T01:34:43;17.23;;;6.03;;
55989;SDS011;41875;55.806;38.082;2024-02-16T01:37:50;12.38;;;5.28;;
55989;SDS011;41875;55.806;38.082;2024-02-16T01:40:54;13.77;;;5.10;;
55989;SDS011;41875;55.806;38.082;2024-02-16T01:43:57;15.18;;;5.80;;
55989;SDS011;41875;55.806;38.082;2024-02-16T01:47:01;16.20;;;5.18;;
55989;SDS011;41875;55.806;38.082;2024-02-16T01:50:05;8.05;;;4.05;;
55989;SDS011;41875;55.806;38.082;2024-02-16T01:53:11;12.75;;;4.78;;
55989;SDS011;41875;55.806;38.082;2024-02-16T01:56:16;14.98;;;5.43;;
55989;SDS011;41875;55.806;38.082;2024-02-16T01:59:45;17.30;;;5.22;;
55989;SDS011;41875;55.806;38.082;2024-02-16T02:02:55;11.88;;;4.50;;
55989;SDS011;41875;55.806;38.082;2024-02-16T02:06:03;11.52;;;5.22;;
55989;SDS011;41875;55.806;38.082;2024-02-16T02:09:09;12.35;;;4.57;;
55989;SDS011;41875;55.806;38.082;2024-02-16T02:12:15;10.90;;;4.45;;
55989;SDS011;41875;55.806;38.082;2024-02-16T02:15:23;9.32;;;3.42;;
55989;SDS011;41875;55.806;38.082;2024-02-16T02:18:27;10.70;;;4.63;;
55989;SDS011;41875;55.806;38.082;2024-02-16T02:21:33;14.68;;;5.15;;
55989;SDS011;41875;55.806;38.082;2024-02-16T02:24:39;16.02;;;4.93;;
55989;SDS011;41875;55.806;38.082;2024-02-16T02:27:43;12.15;;;5.10;;
55989;SDS011;41875;55.806;38.082;2024-02-16T02:30:52;10.98;;;4.65;;
55989;SDS011;41875;55.806;38.082;2024-02-16T02:34:10;14.75;;;4.55;;
55989;SDS011;41875;55.806;38.082;2024-02-16T02:37:14;12.98;;;4.97;;
55989;SDS011;41875;55.806;38.082;2024-02-16T02:40:19;11.32;;;4.53;;
55989;SDS011;41875;55.806;38.082;2024-02-16T02:43:23;11.68;;;4.80;;
55989;SDS011;41875;55.806;38.082;2024-02-16T02:46:29;11.88;;;4.70;;
55989;SDS011;41875;55.806;38.082;2024-02-16T02:49:34;13.45;;;4.63;;
55989;SDS011;41875;55.806;38.082;2024-02-16T02:52:38;13.82;;;4.68;;
55989;SDS011;41875;55.806;38.082;2024-02-16T02:55:45;13.23;;;5.00;;
55989;SDS011;41875;55.806;38.082;2024-02-16T02:58:48;13.45;;;5.05;;
55989;SDS011;41875;55.806;38.082;2024-02-16T03:01:55;10.40;;;4.28;;
55989;SDS011;41875;55.806;38.082;2024-02-16T03:04:59;9.70;;;3.90;;
55989;SDS011;41875;55.806;38.082;2024-02-16T03:08:03;12.48;;;5.47;;
55989;SDS011;41875;55.806;38.082;2024-02-16T03:11:09;10.90;;;5.57;;
55989;SDS011;41875;55.806;38.082;2024-02-16T03:14:17;10.00;;;4.38;;
55989;SDS011;41875;55.806;38.082;2024-02-16T03:17:21;7.70;;;3.45;;
55989;SDS011;41875;55.806;38.082;2024-02-16T03:20:25;15.48;;;5.15;;
55989;SDS011;41875;55.806;38.082;2024-02-16T03:23:31;12.05;;;4.13;;
55989;SDS011;41875;55.806;38.082;2024-02-16T03:26:43;12.77;;;5.35;;
55989;SDS011;41875;55.806;38.082;2024-02-16T03:29:46;13.80;;;4.95;;
55989;SDS011;41875;55.806;38.082;2024-02-16T03:32:53;13.50;;;4.20;;
55989;SDS011;41875;55.806;38.082;2024-02-16T03:35:57;15.00;;;4.85;;
55989;SDS011;41875;55.806;38.082;2024-02-16T03:39:02;16.85;;;5.30;;
55989;SDS011;41875;55.806;38.082;2024-02-16T03:42:07;16.20;;;6.07;;
55989;SDS011;41875;55.806;38.082;2024-02-16T03:45:11;13.63;;;5.00;;
55989;SDS011;41875;55.806;38.082;2024-02-16T03:48:15;15.02;;;5.47;;
55989;SDS011;41875;55.806;38.082;2024-02-16T03:51:19;14.05;;;5.03;;
55989;SDS011;41875;55.806;38.082;2024-02-16T03:54:23;10.85;;;4.93;;
55989;SDS011;41875;55.806;38.082;2024-02-16T03:57:30;10.50;;;4.25;;
55989;SDS011;41875;55.806;38.082;2024-02-16T04:00:34;12.93;;;5.38;;
55989;SDS011;41875;55.806;38.082;2024-02-16T04:03:38;13.38;;;5.10;;
55989;SDS011;41875;55.806;38.082;2024-02-16T04:06:42;13.05;;;4.68;;
55989;SDS011;41875;55.806;38.082;2024-02-16T04:09:46;12.82;;;5.70;;
55989;SDS011;41875;55.806;38.082;2024-02-16T04:12:51;18.20;;;5.72;;
55989;SDS011;41875;55.806;38.082;2024-02-16T04:15:57;14.52;;;4.75;;
55989;SDS011;41875;55.806;38.082;2024-02-16T04:19:01;14.90;;;5.15;;
55989;SDS011;41875;55.806;38.082;2024-02-16T04:22:43;12.25;;;5.07;;
55989;SDS011;41875;55.806;38.082;2024-02-16T04:26:17;15.18;;;5.00;;
55989;SDS011;41875;55.806;38.082;2024-02-16T04:29:22;13.93;;;5.40;;
55989;SDS011;41875;55.806;38.082;2024-02-16T04:32:27;10.57;;;3.92;;
55989;SDS011;41875;55.806;38.082;2024-02-16T04:35:31;9.55;;;4.20;;
55989;SDS011;41875;55.806;38.082;2024-02-16T04:38:35;14.57;;;5.65;;
55989;SDS011;41875;55.806;38.082;2024-02-16T04:41:39;14.05;;;5.22;;
55989;SDS011;41875;55.806;38.082;2024-02-16T04:44:47;12.75;;;4.45;;
55989;SDS011;41875;55.806;38.082;2024-02-16T04:47:51;12.95;;;5.80;;
55989;SDS011;41875;55.806;38.082;2024-02-16T04:50:55;15.52;;;5.53;;
55989;SDS011;41875;55.806;38.082;2024-02-16T04:54:01;11.68;;;4.43;;
55989;SDS011;41875;55.806;38.082;2024-02-16T04:57:08;13.68;;;5.75;;
55989;SDS011;41875;55.806;38.082;2024-02-16T05:00:14;13.68;;;4.75;;
55989;SDS011;41875;55.806;38.082;2024-02-16T05:06:26;9.63;;;4.25;;
55989;SDS011;41875;55.806;38.082;2024-02-16T05:09:31;13.63;;;5.43;;
55989;SDS011;41875;55.806;38.082;2024-02-16T05:12:35;10.90;;;4.28;;
55989;SDS011;41875;55.806;38.082;2024-02-16T05:15:41;11.25;;;4.68;;
55989;SDS011;41875;55.806;38.082;2024-02-16T05:18:45;11.77;;;4.85;;
55989;SDS011;41875;55.806;38.082;2024-02-16T05:21:49;11.70;;;4.00;;
55989;SDS011;41875;55.806;38.082;2024-02-16T05:24:54;13.82;;;5.13;;
55989;SDS011;41875;55.806;38.082;2024-02-16T05:28:01;9.73;;;4.13;;
55989;SDS011;41875;55.806;38.082;2024-02-16T05:31:13;12.82;;;5.07;;
55989;SDS011;41875;55.806;38.082;2024-02-16T05:34:19;7.22;;;2.92;;
55989;SDS011;41875;55.806;38.082;2024-02-16T05:37:25;19.23;;;4.13;;
55989;SDS011;41875;55.806;38.082;2024-02-16T05:40:29;13.02;;;4.68;;
55989;SDS011;41875;55.806;38.082;2024-02-16T05:43:36;9.68;;;4.70;;
55989;SDS011;41875;55.806;38.082;2024-02-16T05:46:43;11.13;;;5.47;;
55989;SDS011;41875;55.806;38.082;2024-02-16T05:49:47;12.32;;;5.07;;
55989;SDS011;41875;55.806;38.082;2024-02-16T05:52:51;13.20;;;4.93;;
55989;SDS011;41875;55.806;38.082;2024-02-16T05:55:55;13.85;;;5.88;;
55989;SDS011;41875;55.806;38.082;2024-02-16T05:58:58;17.55;;;6.22;;
55989;SDS011;41875;55.806;38.082;2024-02-16T06:02:03;13.27;;;4.95;;
55989;SDS011;41875;55.806;38.082;2024-02-16T06:05:11;10.02;;;4.65;;
55989;SDS011;41875;55.806;38.082;2024-02-16T06:08:15;13.50;;;5.22;;
55989;SDS011;41875;55.806;38.082;2024-02-16T06:11:20;15.70;;;6.30;;
55989;SDS011;41875;55.806;38.082;2024-02-16T06:14:24;13.35;;;7.10;;
55989;SDS011;41875;55.806;38.082;2024-02-16T06:17:29;17.55;;;5.70;;
55989;SDS011;41875;55.806;38.082;2024-02-16T06:20:35;16.63;;;6.07;;
55989;SDS011;41875;55.806;38.082;2024-02-16T06:23:38;19.58;;;6.30;;
55989;SDS011;41875;55.806;38.082;2024-02-16T06:26:42;18.27;;;6.32;;
55989;SDS011;41875;55.806;38.082;2024-02-16T06:29:46;13.43;;;5.60;;
55989;SDS011;41875;55.806;38.082;2024-02-16T06:32:51;13.45;;;5.18;;
55989;SDS011;41875;55.806;38.082;2024-02-16T06:35:56;18.47;;;6.47;;
55989;SDS011;41875;55.806;38.082;2024-02-16T06:39:00;14.35;;;5.40;;
55989;SDS011;41875;55.806;38.082;2024-02-16T06:42:05;14.73;;;5.68;;
55989;SDS011;41875;55.806;38.082;2024-02-16T06:45:09;17.88;;;5.55;;
55989;SDS011;41875;55.806;38.082;2024-02-16T06:48:14;18.63;;;6.30;;
55989;SDS011;41875;55.806;38.082;2024-02-16T06:51:18;13.68;;;6.18;;
55989;SDS011;41875;55.806;38.082;2024-02-16T06:54:21;13.30;;;5.07;;
55989;SDS011;41875;55.806;38.082;2024-02-16T06:57:26;17.75;;;6.55;;
55989;SDS011;41875;55.806;38.082;2024-02-16T07:00:31;18.23;;;6.43;;
55989;SDS011;41875;55.806;38.082;2024-02-16T07:03:36;14.93;;;6.03;;
55989;SDS011;41875;55.806;38.082;2024-02-16T07:06:43;14.77;;;5.95;;
55989;SDS011;41875;55.806;38.082;2024-02-16T07:09:47;18.27;;;7.20;;
55989;SDS011;41875;55.806;38.082;2024-02-16T07:12:50;18.30;;;6.70;;
55989;SDS011;41875;55.806;38.082;2024-02-16T07:15:54;19.00;;;6.68;;
55989;SDS011;41875;55.806;38.082;2024-02-16T07:19:02;18.17;;;7.20;;
55989;SDS011;41875;55.806;38.082;2024-02-16T07:22:07;22.48;;;7.15;;
55989;SDS011;41875;55.806;38.082;2024-02-16T07:25:12;17.80;;;6.30;;
55989;SDS011;41875;55.806;38.082;2024-02-16T07:28:15;19.33;;;7.25;;
55989;SDS011;41875;55.806;38.082;2024-02-16T07:31:24;15.00;;;6.07;;
55989;SDS011;41875;55.806;38.082;2024-02-16T07:35:32;15.68;;;6.15;;
55989;SDS011;41875;55.806;38.082;2024-02-16T07:38:37;20.63;;;6.53;;
55989;SDS011;41875;55.806;38.082;2024-02-16T07:41:41;11.05;;;5.15;;
55989;SDS011;41875;55.806;38.082;2024-02-16T07:44:45;15.70;;;6.40;;
55989;SDS011;41875;55.806;38.082;2024-02-16T07:47:48;20.48;;;6.60;;
55989;SDS011;41875;55.806;38.082;2024-02-16T07:50:54;15.50;;;5.95;;
55989;SDS011;41875;55.806;38.082;2024-02-16T07:53:59;17.93;;;6.17;;
55989;SDS011;41875;55.806;38.082;2024-02-16T08:01:06;15.75;;;5.22;;
55989;SDS011;41875;55.806;38.082;2024-02-16T08:04:31;16.30;;;6.90;;
55989;SDS011;41875;55.806;38.082;2024-02-16T08:07:36;15.82;;;6.00;;
55989;SDS011;41875;55.806;38.082;2024-02-16T08:10:39;13.43;;;5.70;;
55989;SDS011;41875;55.806;38.082;2024-02-16T08:13:43;20.63;;;6.93;;
55989;SDS011;41875;55.806;38.082;2024-02-16T08:16:46;14.48;;;6.05;;
55989;SDS011;41875;55.806;38.082;2024-02-16T08:19:54;18.43;;;7.10;;
55989;SDS011;41875;55.806;38.082;2024-02-16T08:23:01;19.00;;;7.68;;
55989;SDS011;41875;55.806;38.082;2024-02-16T08:26:06;18.08;;;7.15;;
55989;SDS011;41875;55.806;38.082;2024-02-16T08:29:10;17.95;;;6.95;;
55989;SDS011;41875;55.806;38.082;2024-02-16T08:32:16;15.18;;;6.40;;
55989;SDS011;41875;55.806;38.082;2024-02-16T08:35:22;18.92;;;7.72;;
55989;SDS011;41875;55.806;38.082;2024-02-16T08:38:27;19.02;;;7.75;;
55989;SDS011;41875;55.806;38.082;2024-02-16T08:41:34;18.35;;;7.38;;
55989;SDS011;41875;55.806;38.082;2024-02-16T08:44:37;17.73;;;7.13;;
55989;SDS011;41875;55.806;38.082;2024-02-16T08:47:42;16.48;;;6.65;;
55989;SDS011;41875;55.806;38.082;2024-02-16T08:50:47;19.83;;;6.75;;
55989;SDS011;41875;55.806;38.082;2024-02-16T08:53:52;16.95;;;7.82;;
55989;SDS011;41875;55.806;38.082;2024-02-16T08:57:01;18.63;;;8.10;;
55989;SDS011;41875;55.806;38.082;2024-02-16T09:00:05;17.92;;;7.88;;
55989;SDS011;41875;55.806;38.082;2024-02-16T09:03:23;25.30;;;9.20;;
55989;SDS011;41875;55.806;38.082;2024-02-16T09:06:28;17.83;;;7.20;;
55989;SDS011;41875;55.806;38.082;2024-02-16T09:09:38;17.60;;;6.97;;
55989;SDS011;41875;55.806;38.082;2024-02-16T09:12:41;16.70;;;7.28;;
55989;SDS011;41875;55.806;38.082;2024-02-16T09:15:50;21.98;;;7.72;;
55989;SDS011;41875;55.806;38.082;2024-02-16T09:18:53;19.80;;;8.15;;
55989;SDS011;41875;55.806;38.082;2024-02-16T09:22:00;15.30;;;6.35;;
55989;SDS011;41875;55.806;38.082;2024-02-16T09:25:07;20.33;;;7.93;;
55989;SDS011;41875;55.806;38.082;2024-02-16T09:28:11;20.92;;;8.50;;
55989;SDS011;41875;55.806;38.082;2024-02-16T09:31:26;20.38;;;7.75;;
55989;SDS011;41875;55.806;38.082;2024-02-16T09:34:30;18.58;;;7.07;;
55989;SDS011;41875;55.806;38.082;2024-02-16T09:37:34;17.20;;;7.15;;
55989;SDS011;41875;55.806;38.082;2024-02-16T09:40:40;19.55;;;7.35;;
55989;SDS011;41875;55.806;38.082;2024-02-16T09:43:44;17.65;;;8.05;;
55989;SDS011;41875;55.806;38.082;2024-02-16T09:46:47;18.63;;;6.93;;
55989;SDS011;41875;55.806;38.082;2024-02-16T09:49:53;23.38;;;8.50;;
55989;SDS011;41875;55.806;38.082;2024-02-16T09:52:57;17.17;;;7.00;;
55989;SDS011;41875;55.806;38.082;2024-02-16T09:56:03;19.45;;;7.32;;
55989;SDS011;41875;55.806;38.082;2024-02-16T09:59:10;19.10;;;6.70;;
55989;SDS011;41875;55.806;38.082;2024-02-16T10:02:16;17.88;;;7.70;;
55989;SDS011;41875;55.806;38.082;2024-02-16T10:05:23;18.10;;;7.80;;
55989;SDS011;41875;55.806;38.082;2024-02-16T10:08:27;18.15;;;8.00;;
55989;SDS011;41875;55.806;38.082;2024-02-16T10:11:32;18.20;;;7.25;;
55989;SDS011;41875;55.806;38.082;2024-02-16T10:14:36;18.13;;;6.85;;
55989;SDS011;41875;55.806;38.082;2024-02-16T10:17:43;12.55;;;5.63;;
55989;SDS011;41875;55.806;38.082;2024-02-16T10:20:47;16.67;;;7.00;;
55989;SDS011;41875;55.806;38.082;2024-02-16T10:23:55;18.02;;;7.20;;
55989;SDS011;41875;55.806;38.082;2024-02-16T10:27:04;14.27;;;5.55;;
55989;SDS011;41875;55.806;38.082;2024-02-16T10:30:08;13.82;;;6.15;;
55989;SDS011;41875;55.806;38.082;2024-02-16T10:33:14;14.63;;;6.20;;
55989;SDS011;41875;55.806;38.082;2024-02-16T10:36:17;20.30;;;7.72;;
55989;SDS011;41875;55.806;38.082;2024-02-16T10:39:22;20.88;;;7.13;;
55989;SDS011;41875;55.806;38.082;2024-02-16T10:42:27;17.67;;;7.47;;
55989;SDS011;41875;55.806;38.082;2024-02-16T10:45:33;18.35;;;7.20;;
55989;SDS011;41875;55.806;38.082;2024-02-16T10:48:41;15.13;;;6.13;;
55989;SDS011;41875;55.806;38.082;2024-02-16T10:51:46;16.30;;;7.45;;
55989;SDS011;41875;55.806;38.082;2024-02-16T10:54:58;16.88;;;7.63;;
55989;SDS011;41875;55.806;38.082;2024-02-16T10:58:09;15.15;;;6.53;;
55989;SDS011;41875;55.806;38.082;2024-02-16T11:01:15;18.05;;;6.32;;
55989;SDS011;41875;55.806;38.082;2024-02-16T11:04:18;18.40;;;7.82;;
55989;SDS011;41875;55.806;38.082;2024-02-16T11:07:24;16.27;;;6.30;;
55989;SDS011;41875;55.806;38.082;2024-02-16T11:10:28;19.58;;;6.93;;
55989;SDS011;41875;55.806;38.082;2024-02-16T11:13:35;17.10;;;7.05;;
55989;SDS011;41875;55.806;38.082;2024-02-16T11:16:43;20.30;;;7.38;;
55989;SDS011;41875;55.806;38.082;2024-02-16T11:19:50;18.58;;;6.88;;
55989;SDS011;41875;55.806;38.082;2024-02-16T11:23:05;16.80;;;6.68;;
55989;SDS011;41875;55.806;38.082;2024-02-16T11:26:12;18.88;;;7.43;;
55989;SDS011;41875;55.806;38.082;2024-02-16T11:29:18;17.15;;;6.50;;
55989;SDS011;41875;55.806;38.082;2024-02-16T11:32:26;18.55;;;8.00;;
55989;SDS011;41875;55.806;38.082;2024-02-16T11:35:30;16.70;;;6.85;;
55989;SDS011;41875;55.806;38.082;2024-02-16T11:38:33;17.48;;;6.90;;
55989;SDS011;41875;55.806;38.082;2024-02-16T11:41:37;15.20;;;7.88;;
55989;SDS011;41875;55.806;38.082;2024-02-16T11:44:50;20.10;;;7.13;;
55989;SDS011;41875;55.806;38.082;2024-02-16T11:48:03;22.17;;;7.65;;
55989;SDS011;41875;55.806;38.082;2024-02-16T11:51:09;18.40;;;6.97;;
55989;SDS011;41875;55.806;38.082;2024-02-16T11:54:16;16.42;;;7.20;;
55989;SDS011;41875;55.806;38.082;2024-02-16T11:57:19;16.92;;;7.28;;
55989;SDS011;41875;55.806;38.082;2024-02-16T12:00:27;17.48;;;6.75;;
55989;SDS011;41875;55.806;38.082;2024-02-16T12:03:34;17.35;;;6.93;;
55989;SDS011;41875;55.806;38.082;2024-02-16T12:06:38;20.38;;;7.30;;
55989;SDS011;41875;55.806;38.082;2024-02-16T12:09:42;16.17;;;6.43;;
55989;SDS011;41875;55.806;38.082;2024-02-16T12:12:47;18.35;;;7.65;;
55989;SDS011;41875;55.806;38.082;2024-02-16T12:15:52;18.50;;;7.10;;
55989;SDS011;41875;55.806;38.082;2024-02-16T12:19:03;18.55;;;7.32;;
55989;SDS011;41875;55.806;38.082;2024-02-16T12:22:07;17.60;;;7.07;;
55989;SDS011;41875;55.806;38.082;2024-02-16T12:25:11;17.05;;;7.53;;
55989;SDS011;41875;55.806;38.082;2024-02-16T12:28:15;21.23;;;6.70;;
55989;SDS011;41875;55.806;38.082;2024-02-16T12:31:20;16.75;;;6.45;;
55989;SDS011;41875;55.806;38.082;2024-02-16T12:34:24;16.70;;;7.18;;
55989;SDS011;41875;55.806;38.082;2024-02-16T12:37:30;15.77;;;6.95;;
55989;SDS011;41875;55.806;38.082;2024-02-16T12:40:33;22.98;;;7.78;;
55989;SDS011;41875;55.806;38.082;2024-02-16T12:43:37;16.92;;;6.60;;
55989;SDS011;41875;55.806;38.082;2024-02-16T12:46:43;16.65;;;6.65;;
55989;SDS011;41875;55.806;38.082;2024-02-16T12:49:47;16.45;;;6.70;;
55989;SDS011;41875;55.806;38.082;2024-02-16T12:52:53;14.10;;;5.72;;
55989;SDS011;41875;55.806;38.082;2024-02-16T12:56:05;15.20;;;6.82;;
55989;SDS011;41875;55.806;38.082;2024-02-16T12:59:10;16.50;;;6.95;;
55989;SDS011;41875;55.806;38.082;2024-02-16T13:02:15;19.65;;;6.25;;
55989;SDS011;41875;55.806;38.082;2024-02-16T13:05:19;17.35;;;6.60;;
55989;SDS011;41875;55.806;38.082;2024-02-16T13:08:23;18.10;;;6.40;;
55989;SDS011;41875;55.806;38.082;2024-02-16T13:11:28;12.82;;;5.88;;
55989;SDS011;41875;55.806;38.082;2024-02-16T13:14:35;18.23;;;6.05;;
55989;SDS011;41875;55.806;38.082;2024-02-16T13:17:40;15.05;;;6.13;;
55989;SDS011;41875;55.806;38.082;2024-02-16T13:20:44;14.93;;;5.95;;
55989;SDS011;41875;55.806;38.082;2024-02-16T13:23:49;19.10;;;7.25;;
55989;SDS011;41875;55.806;38.082;2024-02-16T13:26:52;16.45;;;6.75;;
55989;SDS011;41875;55.806;38.082;2024-02-16T13:29:58;14.75;;;6.32;;
55989;SDS011;41875;55.806;38.082;2024-02-16T13:33:06;16.50;;;6.68;;
55989;SDS011;41875;55.806;38.082;2024-02-16T13:36:11;15.35;;;5.90;;
55989;SDS011;41875;55.806;38.082;2024-02-16T13:39:15;12.80;;;5.40;;
55989;SDS011;41875;55.806;38.082;2024-02-16T13:42:19;12.55;;;5.63;;
55989;SDS011;41875;55.806;38.082;2024-02-16T13:45:23;13.02;;;5.30;;
55989;SDS011;41875;55.806;38.082;2024-02-16T13:48:29;18.08;;;6.43;;
55989;SDS011;41875;55.806;38.082;2024-02-16T13:51:33;15.88;;;6.18;;
55989;SDS011;41875;55.806;38.082;2024-02-16T13:54:36;15.88;;;6.30;;
55989;SDS011;41875;55.806;38.082;2024-02-16T13:57:40;15.65;;;6.05;;
55989;SDS011;41875;55.806;38.082;2024-02-16T14:00:44;15.73;;;6.05;;
55989;SDS011;41875;55.806;38.082;2024-02-16T14:03:51;11.55;;;5.65;;
55989;SDS011;41875;55.806;38.082;2024-02-16T14:10:01;14.80;;;5.03;;
55989;SDS011;41875;55.806;38.082;2024-02-16T14:13:08;14.10;;;6.20;;
55989;SDS011;41875;55.806;38.082;2024-02-16T14:16:12;15.40;;;5.68;;
55989;SDS011;41875;55.806;38.082;2024-02-16T14:19:17;11.60;;;5.05;;
55989;SDS011;41875;55.806;38.082;2024-02-16T14:22:21;15.65;;;6.57;;
55989;SDS011;41875;55.806;38.082;2024-02-16T14:25:35;18.00;;;6.20;;
55989;SDS011;41875;55.806;38.082;2024-02-16T14:28:41;17.52;;;6.22;;
55989;SDS011;41875;55.806;38.082;2024-02-16T14:31:45;13.63;;;5.32;;
55989;SDS011;41875;55.806;38.082;2024-02-16T14:34:52;15.68;;;6.38;;
55989;SDS011;41875;55.806;38.082;2024-02-16T14:37:56;17.48;;;7.03;;
55989;SDS011;41875;55.806;38.082;2024-02-16T14:41:00;16.90;;;6.95;;
55989;SDS011;41875;55.806;38.082;2024-02-16T14:44:05;17.48;;;7.00;;
55989;SDS011;41875;55.806;38.082;2024-02-16T14:47:14;16.83;;;6.88;;
55989;SDS011;41875;55.806;38.082;2024-02-16T14:50:21;16.60;;;6.30;;
55989;SDS011;41875;55.806;38.082;2024-02-16T14:53:26;16.13;;;5.78;;
55989;SDS011;41875;55.806;38.082;2024-02-16T14:56:34;14.40;;;6.05;;
55989;SDS011;41875;55.806;38.082;2024-02-16T14:59:39;20.02;;;6.10;;
55989;SDS011;41875;55.806;38.082;2024-02-16T15:02:44;15.43;;;6.53;;
55989;SDS011;41875;55.806;38.082;2024-02-16T15:05:53;12.57;;;5.07;;
55989;SDS011;41875;55.806;38.082;2024-02-16T15:09:00;19.20;;;6.75;;
55989;SDS011;41875;55.806;38.082;2024-02-16T15:12:09;12.63;;;4.95;;
55989;SDS011;41875;55.806;38.082;2024-02-16T15:15:13;17.67;;;6.22;;
55989;SDS011;41875;55.806;38.082;2024-02-16T15:18:20;15.30;;;6.03;;
55989;SDS011;41875;55.806;38.082;2024-02-16T15:21:25;18.45;;;5.75;;
55989;SDS011;41875;55.806;38.082;2024-02-16T15:24:29;14.43;;;5.72;;
55989;SDS011;41875;55.806;38.082;2024-02-16T15:27:35;13.60;;;5.45;;
55989;SDS011;41875;55.806;38.082;2024-02-16T15:30:41;12.85;;;4.78;;
55989;SDS011;41875;55.806;38.082;2024-02-16T15:33:46;17.63;;;6.32;;
55989;SDS011;41875;55.806;38.082;2024-02-16T15:36:52;15.73;;;5.88;;
55989;SDS011;41875;55.806;38.082;2024-02-16T15:39:57;21.52;;;6.63;;
55989;SDS011;41875;55.806;38.082;2024-02-16T15:43:02;16.75;;;6.85;;
55989;SDS011;41875;55.806;38.082;2024-02-16T15:46:08;13.77;;;6.10;;
55989;SDS011;41875;55.806;38.082;2024-02-16T15:49:12;16.27;;;6.47;;
55989;SDS011;41875;55.806;38.082;2024-02-16T15:52:17;18.85;;;7.57;;
55989;SDS011;41875;55.806;38.082;2024-02-16T15:55:21;16.17;;;6.35;;
55989;SDS011;41875;55.806;38.082;2024-02-16T16:02:13;16.88;;;6.53;;
55989;SDS011;41875;55.806;38.082;2024-02-16T16:05:16;16.27;;;5.32;;
55989;SDS011;41875;55.806;38.082;2024-02-16T16:08:21;12.55;;;5.25;;
55989;SDS011;41875;55.806;38.082;2024-02-16T16:11:25;13.18;;;5.90;;
55989;SDS011;41875;55.806;38.082;2024-02-16T16:14:29;17.92;;;5.95;;
55989;SDS011;41875;55.806;38.082;2024-02-16T16:17:33;15.00;;;5.78;;
55989;SDS011;41875;55.806;38.082;2024-02-16T16:20:36;18.65;;;6.35;;
55989;SDS011;41875;55.806;38.082;2024-02-16T16:23:44;15.98;;;5.72;;
55989;SDS011;41875;55.806;38.082;2024-02-16T16:26:48;12.98;;;4.93;;
55989;SDS011;41875;55.806;38.082;2024-02-16T16:29:51;13.00;;;5.07;;
55989;SDS011;41875;55.806;38.082;2024-02-16T16:32:56;19.75;;;6.25;;
55989;SDS011;41875;55.806;38.082;2024-02-16T16:36:00;13.38;;;4.60;;
55989;SDS011;41875;55.806;38.082;2024-02-16T16:39:07;14.02;;;6.57;;
55989;SDS011;41875;55.806;38.082;2024-02-16T16:42:11;17.10;;;5.38;;
55989;SDS011;41875;55.806;38.082;2024-02-16T16:45:19;13.02;;;4.93;;
55989;SDS011;41875;55.806;38.082;2024-02-16T16:48:25;17.90;;;5.70;;
55989;SDS011;41875;55.806;38.082;2024-02-16T16:51:29;10.15;;;4.15;;
55989;SDS011;41875;55.806;38.082;2024-02-16T16:54:36;15.02;;;6.00;;
55989;SDS011;41875;55.806;38.082;2024-02-16T16:57:43;12.80;;;5.32;;
55989;SDS011;41875;55.806;38.082;2024-02-16T17:00:47;14.27;;;5.32;;
55989;SDS011;41875;55.806;38.082;2024-02-16T17:03:51;16.90;;;6.15;;
55989;SDS011;41875;55.806;38.082;2024-02-16T17:06:58;13.45;;;5.82;;
55989;SDS011;41875;55.806;38.082;2024-02-16T17:10:04;17.73;;;6.70;;
55989;SDS011;41875;55.806;38.082;2024-02-16T17:13:09;17.25;;;6.18;;
55989;SDS011;41875;55.806;38.082;2024-02-16T17:16:16;14.75;;;5.55;;
55989;SDS011;41875;55.806;38.082;2024-02-16T17:19:22;14.32;;;5.72;;
55989;SDS011;41875;55.806;38.082;2024-02-16T17:22:29;14.18;;;6.43;;
55989;SDS011;41875;55.806;38.082;2024-02-16T17:25:34;12.50;;;5.65;;
55989;SDS011;41875;55.806;38.082;2024-02-16T17:28:38;15.93;;;5.95;;
55989;SDS011;41875;55.806;38.082;2024-02-16T17:31:44;16.05;;;5.60;;
55989;SDS011;41875;55.806;38.082;2024-02-16T17:34:48;18.10;;;6.40;;
55989;SDS011;41875;55.806;38.082;2024-02-16T17:37:56;16.88;;;5.00;;
55989;SDS011;41875;55.806;38.082;2024-02-16T17:41:04;11.93;;;5.10;;
55989;SDS011;41875;55.806;38.082;2024-02-16T17:44:09;17.17;;;6.00;;
55989;SDS011;41875;55.806;38.082;2024-02-16T17:47:13;16.05;;;6.43;;
55989;SDS011;41875;55.806;38.082;2024-02-16T17:50:17;13.18;;;5.60;;
55989;SDS011;41875;55.806;38.082;2024-02-16T17:53:21;13.73;;;6.03;;
55989;SDS011;41875;55.806;38.082;2024-02-16T17:56:26;16.90;;;5.60;;
55989;SDS011;41875;55.806;38.082;2024-02-16T17:59:31;13.77;;;5.35;;
55989;SDS011;41875;55.806;38.082;2024-02-16T18:02:34;14.73;;;5.88;;
55989;SDS011;41875;55.806;38.082;2024-02-16T18:05:43;12.85;;;5.50;;
55989;SDS011;41875;55.806;38.082;2024-02-16T18:08:57;15.70;;;6.18;;
55989;SDS011;41875;55.806;38.082;2024-02-16T18:12:04;15.90;;;5.78;;
55989;SDS011;41875;55.806;38.082;2024-02-16T18:15:18;15.48;;;5.07;;
55989;SDS011;41875;55.806;38.082;2024-02-16T18:18:23;15.93;;;5.25;;
55989;SDS011;41875;55.806;38.082;2024-02-16T18:21:28;13.05;;;5.60;;